sensor_id;sensor_type;location;lat;lon;timestamp;P1;durP1;ratioP1;P2;durP2;ratioP2
38603;SDS011;24924;50.054;8.790;2023-02-19T00:01:14;9.30;;;6.40;;
38603;SDS011;24924;50.054;8.790;2023-02-19T00:03:42;9.90;;;6.15;;
38603;SDS011;24924;50.054;8.790;2023-02-19T00:06:13;9.13;;;6.43;;
38603;SDS011;24924;50.054;8.790;2023-02-19T00:08:39;11.00;;;6.43;;
38603;SDS011;24924;50.054;8.790;2023-02-19T00:11:06;11.60;;;6.70;;
38603;SDS011;24924;50.054;8.790;2023-02-19T00:13:37;11.88;;;6.63;;
38603;SDS011;24924;50.054;8.790;2023-02-19T00:16:26;9.68;;;6.70;;
38603;SDS011;24924;50.054;8.790;2023-02-19T00:18:52;12.18;;;7.15;;
38603;SDS011;24924;50.054;8.790;2023-02-19T00:21:19;11.53;;;6.70;;
38603;SDS011;24924;50.054;8.790;2023-02-19T00:23:52;11.25;;;6.93;;
38603;SDS011;24924;50.054;8.790;2023-02-19T00:26:19;10.18;;;6.85;;
38603;SDS011;24924;50.054;8.790;2023-02-19T00:28:47;10.65;;;7.07;;
38603;SDS011;24924;50.054;8.790;2023-02-19T00:31:21;10.00;;;6.82;;
38603;SDS011;24924;50.054;8.790;2023-02-19T00:33:58;10.57;;;6.70;;
38603;SDS011;24924;50.054;8.790;2023-02-19T00:36:26;10.27;;;7.30;;
38603;SDS011;24924;50.054;8.790;2023-02-19T00:38:52;12.57;;;7.05;;
38603;SDS011;24924;50.054;8.790;2023-02-19T00:41:19;10.40;;;7.03;;
38603;SDS011;24924;50.054;8.790;2023-02-19T00:43:53;11.05;;;6.80;;
38603;SDS011;24924;50.054;8.790;2023-02-19T00:46:26;9.63;;;6.30;;
38603;SDS011;24924;50.054;8.790;2023-02-19T00:48:53;11.07;;;7.50;;
38603;SDS011;24924;50.054;8.790;2023-02-19T00:51:21;10.68;;;7.20;;
38603;SDS011;24924;50.054;8.790;2023-02-19T00:53:48;13.63;;;7.53;;
38603;SDS011;24924;50.054;8.790;2023-02-19T00:56:15;11.68;;;7.80;;
38603;SDS011;24924;50.054;8.790;2023-02-19T00:58:41;13.07;;;8.63;;
38603;SDS011;24924;50.054;8.790;2023-02-19T01:01:07;10.70;;;7.47;;
38603;SDS011;24924;50.054;8.790;2023-02-19T01:03:34;10.85;;;6.50;;
38603;SDS011;24924;50.054;8.790;2023-02-19T01:06:00;10.38;;;7.28;;
38603;SDS011;24924;50.054;8.790;2023-02-19T01:08:27;11.55;;;7.00;;
38603;SDS011;24924;50.054;8.790;2023-02-19T01:10:55;11.60;;;7.43;;
38603;SDS011;24924;50.054;8.790;2023-02-19T01:13:21;11.90;;;7.60;;
38603;SDS011;24924;50.054;8.790;2023-02-19T01:15:47;11.30;;;7.00;;
38603;SDS011;24924;50.054;8.790;2023-02-19T01:18:13;11.95;;;7.70;;
38603;SDS011;24924;50.054;8.790;2023-02-19T01:20:40;12.17;;;8.23;;
38603;SDS011;24924;50.054;8.790;2023-02-19T01:23:07;10.20;;;6.60;;
38603;SDS011;24924;50.054;8.790;2023-02-19T01:25:36;10.07;;;6.72;;
38603;SDS011;24924;50.054;8.790;2023-02-19T01:28:04;12.48;;;7.95;;
38603;SDS011;24924;50.054;8.790;2023-02-19T01:30:32;11.82;;;7.43;;
38603;SDS011;24924;50.054;8.790;2023-02-19T01:33:00;11.70;;;7.43;;
38603;SDS011;24924;50.054;8.790;2023-02-19T01:35:26;10.70;;;6.45;;
38603;SDS011;24924;50.054;8.790;2023-02-19T01:37:52;11.02;;;6.93;;
38603;SDS011;24924;50.054;8.790;2023-02-19T01:40:18;13.83;;;7.03;;
38603;SDS011;24924;50.054;8.790;2023-02-19T01:42:45;11.02;;;6.88;;
38603;SDS011;24924;50.054;8.790;2023-02-19T01:45:27;12.23;;;6.80;;
38603;SDS011;24924;50.054;8.790;2023-02-19T01:48:06;13.50;;;7.18;;
38603;SDS011;24924;50.054;8.790;2023-02-19T01:50:36;10.23;;;6.63;;
38603;SDS011;24924;50.054;8.790;2023-02-19T01:53:07;9.87;;;5.73;;
38603;SDS011;24924;50.054;8.790;2023-02-19T01:55:36;11.77;;;6.90;;
38603;SDS011;24924;50.054;8.790;2023-02-19T01:58:03;10.40;;;6.32;;
38603;SDS011;24924;50.054;8.790;2023-02-19T02:00:31;8.20;;;5.30;;
38603;SDS011;24924;50.054;8.790;2023-02-19T02:02:57;8.50;;;5.85;;
38603;SDS011;24924;50.054;8.790;2023-02-19T02:07:51;8.70;;;5.70;;
38603;SDS011;24924;50.054;8.790;2023-02-19T02:10:35;8.23;;;5.97;;
38603;SDS011;24924;50.054;8.790;2023-02-19T02:13:01;7.50;;;5.37;;
38603;SDS011;24924;50.054;8.790;2023-02-19T02:15:28;8.35;;;5.35;;
38603;SDS011;24924;50.054;8.790;2023-02-19T02:21:14;8.10;;;5.38;;
38603;SDS011;24924;50.054;8.790;2023-02-19T02:26:58;9.30;;;5.13;;
38603;SDS011;24924;50.054;8.790;2023-02-19T02:32:14;8.13;;;4.75;;
38603;SDS011;24924;50.054;8.790;2023-02-19T02:34:53;8.70;;;5.55;;
38603;SDS011;24924;50.054;8.790;2023-02-19T02:37:23;7.40;;;4.80;;
38603;SDS011;24924;50.054;8.790;2023-02-19T02:39:52;8.43;;;5.10;;
38603;SDS011;24924;50.054;8.790;2023-02-19T02:42:21;7.70;;;5.18;;
38603;SDS011;24924;50.054;8.790;2023-02-19T02:48:08;7.85;;;4.72;;
38603;SDS011;24924;50.054;8.790;2023-02-19T02:50:51;8.03;;;4.57;;
38603;SDS011;24924;50.054;8.790;2023-02-19T02:53:22;8.13;;;4.53;;
38603;SDS011;24924;50.054;8.790;2023-02-19T02:56:12;9.07;;;5.60;;
38603;SDS011;24924;50.054;8.790;2023-02-19T02:58:40;9.13;;;4.95;;
38603;SDS011;24924;50.054;8.790;2023-02-19T03:01:09;8.98;;;5.60;;
38603;SDS011;24924;50.054;8.790;2023-02-19T03:04:17;7.83;;;5.07;;
38603;SDS011;24924;50.054;8.790;2023-02-19T03:06:49;7.30;;;4.55;;
38603;SDS011;24924;50.054;8.790;2023-02-19T03:09:18;9.68;;;6.28;;
38603;SDS011;24924;50.054;8.790;2023-02-19T03:11:56;8.77;;;5.15;;
38603;SDS011;24924;50.054;8.790;2023-02-19T03:14:46;8.57;;;5.57;;
38603;SDS011;24924;50.054;8.790;2023-02-19T03:17:53;9.27;;;5.80;;
38603;SDS011;24924;50.054;8.790;2023-02-19T03:20:41;9.30;;;5.60;;
38603;SDS011;24924;50.054;8.790;2023-02-19T03:23:10;8.43;;;5.38;;
38603;SDS011;24924;50.054;8.790;2023-02-19T03:25:39;9.77;;;6.32;;
38603;SDS011;24924;50.054;8.790;2023-02-19T03:28:33;9.32;;;6.30;;
38603;SDS011;24924;50.054;8.790;2023-02-19T03:31:24;11.27;;;6.33;;
38603;SDS011;24924;50.054;8.790;2023-02-19T03:34:00;11.02;;;6.50;;
38603;SDS011;24924;50.054;8.790;2023-02-19T03:36:34;12.18;;;6.03;;
38603;SDS011;24924;50.054;8.790;2023-02-19T03:39:05;8.50;;;5.30;;
38603;SDS011;24924;50.054;8.790;2023-02-19T03:41:47;9.40;;;6.18;;
38603;SDS011;24924;50.054;8.790;2023-02-19T03:47:14;9.27;;;5.47;;
38603;SDS011;24924;50.054;8.790;2023-02-19T03:55:33;7.78;;;5.22;;
38603;SDS011;24924;50.054;8.790;2023-02-19T03:58:23;8.30;;;5.40;;
38603;SDS011;24924;50.054;8.790;2023-02-19T04:01:01;8.43;;;4.88;;
38603;SDS011;24924;50.054;8.790;2023-02-19T04:06:18;9.82;;;5.20;;
38603;SDS011;24924;50.054;8.790;2023-02-19T04:08:51;8.73;;;5.57;;
38603;SDS011;24924;50.054;8.790;2023-02-19T04:11:18;10.90;;;5.37;;
38603;SDS011;24924;50.054;8.790;2023-02-19T04:13:49;8.82;;;4.70;;
38603;SDS011;24924;50.054;8.790;2023-02-19T04:16:20;8.88;;;5.85;;
38603;SDS011;24924;50.054;8.790;2023-02-19T04:18:50;8.57;;;4.80;;
38603;SDS011;24924;50.054;8.790;2023-02-19T04:21:18;8.32;;;5.07;;
38603;SDS011;24924;50.054;8.790;2023-02-19T04:23:47;8.23;;;4.87;;
38603;SDS011;24924;50.054;8.790;2023-02-19T04:26:14;7.80;;;5.43;;
38603;SDS011;24924;50.054;8.790;2023-02-19T04:28:41;8.13;;;5.38;;
38603;SDS011;24924;50.054;8.790;2023-02-19T04:31:08;7.47;;;4.65;;
38603;SDS011;24924;50.054;8.790;2023-02-19T04:33:35;7.43;;;4.70;;
38603;SDS011;24924;50.054;8.790;2023-02-19T04:36:01;7.30;;;4.60;;
38603;SDS011;24924;50.054;8.790;2023-02-19T04:38:28;7.90;;;4.10;;
38603;SDS011;24924;50.054;8.790;2023-02-19T04:40:53;7.55;;;4.10;;
38603;SDS011;24924;50.054;8.790;2023-02-19T04:43:19;7.55;;;4.38;;
38603;SDS011;24924;50.054;8.790;2023-02-19T04:45:45;6.50;;;3.90;;
38603;SDS011;24924;50.054;8.790;2023-02-19T04:48:11;7.05;;;4.32;;
38603;SDS011;24924;50.054;8.790;2023-02-19T04:50:38;7.25;;;3.97;;
38603;SDS011;24924;50.054;8.790;2023-02-19T04:53:04;6.00;;;4.30;;
38603;SDS011;24924;50.054;8.790;2023-02-19T04:55:31;6.37;;;4.20;;
38603;SDS011;24924;50.054;8.790;2023-02-19T04:57:56;6.22;;;3.60;;
38603;SDS011;24924;50.054;8.790;2023-02-19T05:00:22;5.85;;;3.75;;
38603;SDS011;24924;50.054;8.790;2023-02-19T05:02:48;5.87;;;3.80;;
38603;SDS011;24924;50.054;8.790;2023-02-19T05:05:14;6.30;;;3.70;;
38603;SDS011;24924;50.054;8.790;2023-02-19T05:07:40;6.43;;;3.58;;
38603;SDS011;24924;50.054;8.790;2023-02-19T05:10:06;5.15;;;3.03;;
38603;SDS011;24924;50.054;8.790;2023-02-19T05:12:32;5.90;;;3.80;;
38603;SDS011;24924;50.054;8.790;2023-02-19T05:14:58;4.80;;;3.33;;
38603;SDS011;24924;50.054;8.790;2023-02-19T05:17:24;4.90;;;3.30;;
38603;SDS011;24924;50.054;8.790;2023-02-19T05:19:50;6.20;;;3.77;;
38603;SDS011;24924;50.054;8.790;2023-02-19T05:22:16;4.97;;;3.33;;
38603;SDS011;24924;50.054;8.790;2023-02-19T05:24:42;6.35;;;3.47;;
38603;SDS011;24924;50.054;8.790;2023-02-19T05:27:09;5.88;;;3.55;;
38603;SDS011;24924;50.054;8.790;2023-02-19T05:29:34;5.97;;;3.73;;
38603;SDS011;24924;50.054;8.790;2023-02-19T05:32:00;4.80;;;3.30;;
38603;SDS011;24924;50.054;8.790;2023-02-19T05:34:26;4.97;;;3.05;;
38603;SDS011;24924;50.054;8.790;2023-02-19T05:36:52;5.27;;;3.37;;
38603;SDS011;24924;50.054;8.790;2023-02-19T05:39:18;7.28;;;3.17;;
38603;SDS011;24924;50.054;8.790;2023-02-19T05:41:44;4.97;;;2.42;;
38603;SDS011;24924;50.054;8.790;2023-02-19T05:44:10;4.37;;;2.60;;
38603;SDS011;24924;50.054;8.790;2023-02-19T05:46:37;4.13;;;2.50;;
38603;SDS011;24924;50.054;8.790;2023-02-19T05:49:03;3.92;;;2.47;;
38603;SDS011;24924;50.054;8.790;2023-02-19T05:51:29;3.60;;;2.10;;
38603;SDS011;24924;50.054;8.790;2023-02-19T05:53:55;4.22;;;2.50;;
38603;SDS011;24924;50.054;8.790;2023-02-19T05:56:26;4.03;;;2.20;;
38603;SDS011;24924;50.054;8.790;2023-02-19T05:59:05;3.95;;;2.38;;
38603;SDS011;24924;50.054;8.790;2023-02-19T06:01:45;4.13;;;2.15;;
38603;SDS011;24924;50.054;8.790;2023-02-19T06:04:12;4.30;;;2.60;;
38603;SDS011;24924;50.054;8.790;2023-02-19T06:06:39;4.70;;;2.90;;
38603;SDS011;24924;50.054;8.790;2023-02-19T06:09:06;5.33;;;2.77;;
38603;SDS011;24924;50.054;8.790;2023-02-19T06:11:33;4.70;;;2.95;;
38603;SDS011;24924;50.054;8.790;2023-02-19T06:13:59;4.65;;;2.67;;
38603;SDS011;24924;50.054;8.790;2023-02-19T06:16:25;4.68;;;2.80;;
38603;SDS011;24924;50.054;8.790;2023-02-19T06:18:51;4.60;;;3.00;;
38603;SDS011;24924;50.054;8.790;2023-02-19T06:21:17;4.63;;;2.93;;
38603;SDS011;24924;50.054;8.790;2023-02-19T06:23:43;4.80;;;3.00;;
38603;SDS011;24924;50.054;8.790;2023-02-19T06:28:39;4.60;;;2.80;;
38603;SDS011;24924;50.054;8.790;2023-02-19T06:31:07;4.65;;;2.90;;
38603;SDS011;24924;50.054;8.790;2023-02-19T06:33:34;5.35;;;2.97;;
38603;SDS011;24924;50.054;8.790;2023-02-19T06:36:00;4.32;;;2.80;;
38603;SDS011;24924;50.054;8.790;2023-02-19T06:38:28;4.68;;;2.67;;
38603;SDS011;24924;50.054;8.790;2023-02-19T06:40:58;4.77;;;2.90;;
38603;SDS011;24924;50.054;8.790;2023-02-19T06:43:25;4.68;;;2.70;;
38603;SDS011;24924;50.054;8.790;2023-02-19T06:45:51;4.28;;;2.70;;
38603;SDS011;24924;50.054;8.790;2023-02-19T06:48:17;4.85;;;2.80;;
38603;SDS011;24924;50.054;8.790;2023-02-19T06:50:44;3.95;;;2.50;;
38603;SDS011;24924;50.054;8.790;2023-02-19T06:53:10;4.57;;;2.60;;
38603;SDS011;24924;50.054;8.790;2023-02-19T06:55:36;4.65;;;2.60;;
38603;SDS011;24924;50.054;8.790;2023-02-19T06:58:05;6.07;;;2.50;;
38603;SDS011;24924;50.054;8.790;2023-02-19T07:00:32;4.82;;;2.50;;
38603;SDS011;24924;50.054;8.790;2023-02-19T07:02:59;5.45;;;2.20;;
38603;SDS011;24924;50.054;8.790;2023-02-19T07:05:25;4.18;;;2.03;;
38603;SDS011;24924;50.054;8.790;2023-02-19T07:07:50;5.00;;;2.17;;
38603;SDS011;24924;50.054;8.790;2023-02-19T07:10:16;4.63;;;2.47;;
38603;SDS011;24924;50.054;8.790;2023-02-19T07:12:42;5.13;;;2.30;;
38603;SDS011;24924;50.054;8.790;2023-02-19T07:15:08;4.17;;;2.00;;
38603;SDS011;24924;50.054;8.790;2023-02-19T07:17:34;3.85;;;2.13;;
38603;SDS011;24924;50.054;8.790;2023-02-19T07:20:00;4.80;;;2.10;;
38603;SDS011;24924;50.054;8.790;2023-02-19T07:22:26;4.00;;;2.20;;
38603;SDS011;24924;50.054;8.790;2023-02-19T07:24:52;4.60;;;2.30;;
38603;SDS011;24924;50.054;8.790;2023-02-19T07:27:18;4.30;;;2.08;;
38603;SDS011;24924;50.054;8.790;2023-02-19T07:29:44;3.95;;;1.90;;
38603;SDS011;24924;50.054;8.790;2023-02-19T07:32:10;3.63;;;1.97;;
38603;SDS011;24924;50.054;8.790;2023-02-19T07:34:35;4.95;;;2.35;;
38603;SDS011;24924;50.054;8.790;2023-02-19T07:37:01;5.50;;;2.10;;
38603;SDS011;24924;50.054;8.790;2023-02-19T07:39:28;4.90;;;2.00;;
38603;SDS011;24924;50.054;8.790;2023-02-19T07:41:53;5.95;;;2.10;;
38603;SDS011;24924;50.054;8.790;2023-02-19T07:44:25;4.30;;;2.15;;
38603;SDS011;24924;50.054;8.790;2023-02-19T07:46:51;3.80;;;2.20;;
38603;SDS011;24924;50.054;8.790;2023-02-19T07:49:17;5.53;;;2.20;;
38603;SDS011;24924;50.054;8.790;2023-02-19T07:51:44;4.82;;;2.40;;
38603;SDS011;24924;50.054;8.790;2023-02-19T07:54:09;5.57;;;2.20;;
38603;SDS011;24924;50.054;8.790;2023-02-19T07:56:36;4.47;;;2.30;;
38603;SDS011;24924;50.054;8.790;2023-02-19T07:59:02;3.97;;;2.00;;
38603;SDS011;24924;50.054;8.790;2023-02-19T08:01:28;4.10;;;2.15;;
38603;SDS011;24924;50.054;8.790;2023-02-19T08:04:13;4.73;;;2.00;;
38603;SDS011;24924;50.054;8.790;2023-02-19T08:06:39;4.80;;;2.00;;
38603;SDS011;24924;50.054;8.790;2023-02-19T08:09:06;4.05;;;2.10;;
38603;SDS011;24924;50.054;8.790;2023-02-19T08:11:32;6.00;;;2.10;;
38603;SDS011;24924;50.054;8.790;2023-02-19T08:14:16;5.30;;;2.40;;
38603;SDS011;24924;50.054;8.790;2023-02-19T08:16:49;4.90;;;1.97;;
38603;SDS011;24924;50.054;8.790;2023-02-19T08:19:16;5.03;;;2.17;;
38603;SDS011;24924;50.054;8.790;2023-02-19T08:21:42;5.00;;;2.20;;
38603;SDS011;24924;50.054;8.790;2023-02-19T08:24:08;4.13;;;2.20;;
38603;SDS011;24924;50.054;8.790;2023-02-19T08:26:35;5.22;;;2.00;;
38603;SDS011;24924;50.054;8.790;2023-02-19T08:29:01;4.77;;;2.23;;
38603;SDS011;24924;50.054;8.790;2023-02-19T08:31:28;4.75;;;2.13;;
38603;SDS011;24924;50.054;8.790;2023-02-19T08:33:54;4.80;;;2.13;;
38603;SDS011;24924;50.054;8.790;2023-02-19T08:36:19;5.63;;;2.30;;
38603;SDS011;24924;50.054;8.790;2023-02-19T08:38:45;6.20;;;2.17;;
38603;SDS011;24924;50.054;8.790;2023-02-19T08:41:12;5.70;;;2.20;;
38603;SDS011;24924;50.054;8.790;2023-02-19T08:43:38;5.32;;;2.15;;
38603;SDS011;24924;50.054;8.790;2023-02-19T08:46:05;4.68;;;2.10;;
38603;SDS011;24924;50.054;8.790;2023-02-19T08:48:34;7.37;;;2.60;;
38603;SDS011;24924;50.054;8.790;2023-02-19T08:51:02;5.38;;;2.22;;
38603;SDS011;24924;50.054;8.790;2023-02-19T08:53:32;5.18;;;2.25;;
38603;SDS011;24924;50.054;8.790;2023-02-19T08:56:14;5.47;;;2.55;;
38603;SDS011;24924;50.054;8.790;2023-02-19T08:58:41;4.90;;;2.63;;
38603;SDS011;24924;50.054;8.790;2023-02-19T09:01:11;8.43;;;2.80;;
38603;SDS011;24924;50.054;8.790;2023-02-19T09:03:40;5.07;;;2.17;;
38603;SDS011;24924;50.054;8.790;2023-02-19T09:06:09;5.93;;;2.45;;
38603;SDS011;24924;50.054;8.790;2023-02-19T09:08:39;6.72;;;2.45;;
38603;SDS011;24924;50.054;8.790;2023-02-19T09:11:05;4.43;;;2.33;;
38603;SDS011;24924;50.054;8.790;2023-02-19T09:13:31;5.60;;;2.10;;
38603;SDS011;24924;50.054;8.790;2023-02-19T09:15:57;4.85;;;2.67;;
38603;SDS011;24924;50.054;8.790;2023-02-19T09:18:23;6.97;;;2.85;;
38603;SDS011;24924;50.054;8.790;2023-02-19T09:20:50;4.63;;;2.35;;
38603;SDS011;24924;50.054;8.790;2023-02-19T09:23:15;7.47;;;2.20;;
38603;SDS011;24924;50.054;8.790;2023-02-19T09:25:41;5.95;;;2.60;;
38603;SDS011;24924;50.054;8.790;2023-02-19T09:28:07;7.47;;;2.88;;
38603;SDS011;24924;50.054;8.790;2023-02-19T09:30:33;7.30;;;2.70;;
38603;SDS011;24924;50.054;8.790;2023-02-19T09:32:59;5.00;;;2.70;;
38603;SDS011;24924;50.054;8.790;2023-02-19T09:35:25;7.35;;;2.60;;
38603;SDS011;24924;50.054;8.790;2023-02-19T09:37:52;5.95;;;2.30;;
38603;SDS011;24924;50.054;8.790;2023-02-19T09:40:18;6.43;;;2.60;;
38603;SDS011;24924;50.054;8.790;2023-02-19T09:42:45;5.18;;;2.78;;
38603;SDS011;24924;50.054;8.790;2023-02-19T09:45:31;6.03;;;2.50;;
38603;SDS011;24924;50.054;8.790;2023-02-19T09:47:58;6.43;;;2.45;;
38603;SDS011;24924;50.054;8.790;2023-02-19T09:50:26;8.23;;;3.33;;
38603;SDS011;24924;50.054;8.790;2023-02-19T09:52:59;9.18;;;3.10;;
38603;SDS011;24924;50.054;8.790;2023-02-19T09:55:35;5.38;;;2.80;;
38603;SDS011;24924;50.054;8.790;2023-02-19T09:58:07;6.55;;;2.75;;
38603;SDS011;24924;50.054;8.790;2023-02-19T10:00:59;7.03;;;2.75;;
38603;SDS011;24924;50.054;8.790;2023-02-19T10:03:28;6.27;;;2.70;;
38603;SDS011;24924;50.054;8.790;2023-02-19T10:05:58;8.80;;;2.80;;
38603;SDS011;24924;50.054;8.790;2023-02-19T10:08:30;6.03;;;2.80;;
38603;SDS011;24924;50.054;8.790;2023-02-19T10:10:57;6.20;;;2.60;;
38603;SDS011;24924;50.054;8.790;2023-02-19T10:13:33;5.55;;;2.83;;
38603;SDS011;24924;50.054;8.790;2023-02-19T10:16:03;4.77;;;2.80;;
38603;SDS011;24924;50.054;8.790;2023-02-19T10:18:37;7.47;;;2.65;;
38603;SDS011;24924;50.054;8.790;2023-02-19T10:21:06;7.20;;;2.80;;
38603;SDS011;24924;50.054;8.790;2023-02-19T10:23:35;7.90;;;2.92;;
38603;SDS011;24924;50.054;8.790;2023-02-19T10:26:02;5.72;;;2.78;;
38603;SDS011;24924;50.054;8.790;2023-02-19T10:28:28;6.90;;;3.23;;
38603;SDS011;24924;50.054;8.790;2023-02-19T10:30:58;7.30;;;3.22;;
38603;SDS011;24924;50.054;8.790;2023-02-19T10:33:25;8.68;;;3.67;;
38603;SDS011;24924;50.054;8.790;2023-02-19T10:35:53;5.70;;;3.37;;
38603;SDS011;24924;50.054;8.790;2023-02-19T10:38:26;6.82;;;3.40;;
38603;SDS011;24924;50.054;8.790;2023-02-19T10:40:58;9.82;;;4.10;;
38603;SDS011;24924;50.054;8.790;2023-02-19T10:43:35;8.07;;;3.70;;
38603;SDS011;24924;50.054;8.790;2023-02-19T10:46:07;8.45;;;3.95;;
38603;SDS011;24924;50.054;8.790;2023-02-19T10:48:49;8.63;;;3.73;;
38603;SDS011;24924;50.054;8.790;2023-02-19T10:51:18;7.80;;;3.60;;
38603;SDS011;24924;50.054;8.790;2023-02-19T10:53:50;7.53;;;3.78;;
38603;SDS011;24924;50.054;8.790;2023-02-19T10:56:27;7.95;;;3.78;;
38603;SDS011;24924;50.054;8.790;2023-02-19T10:59:12;8.40;;;3.63;;
38603;SDS011;24924;50.054;8.790;2023-02-19T11:05:00;8.63;;;4.07;;
38603;SDS011;24924;50.054;8.790;2023-02-19T11:07:28;12.73;;;3.90;;
38603;SDS011;24924;50.054;8.790;2023-02-19T11:09:55;11.32;;;4.03;;
38603;SDS011;24924;50.054;8.790;2023-02-19T11:12:22;8.57;;;3.65;;
38603;SDS011;24924;50.054;8.790;2023-02-19T11:14:53;8.60;;;3.53;;
38603;SDS011;24924;50.054;8.790;2023-02-19T11:17:28;10.27;;;4.13;;
38603;SDS011;24924;50.054;8.790;2023-02-19T11:19:56;7.65;;;4.05;;
38603;SDS011;24924;50.054;8.790;2023-02-19T11:22:38;8.75;;;4.15;;
38603;SDS011;24924;50.054;8.790;2023-02-19T11:30:32;9.55;;;3.50;;
38603;SDS011;24924;50.054;8.790;2023-02-19T11:33:33;8.18;;;3.72;;
38603;SDS011;24924;50.054;8.790;2023-02-19T11:35:54;6.93;;;3.00;;
38603;SDS011;24924;50.054;8.790;2023-02-19T11:38:41;7.25;;;3.35;;
38603;SDS011;24924;50.054;8.790;2023-02-19T11:41:14;7.87;;;3.97;;
38603;SDS011;24924;50.054;8.790;2023-02-19T11:49:47;7.50;;;3.40;;
38603;SDS011;24924;50.054;8.790;2023-02-19T12:05:41;6.90;;;3.50;;
38603;SDS011;24924;50.054;8.790;2023-02-19T12:08:20;10.23;;;3.50;;
38603;SDS011;24924;50.054;8.790;2023-02-19T12:13:55;6.85;;;3.30;;
38603;SDS011;24924;50.054;8.790;2023-02-19T12:17:11;7.40;;;3.95;;
38603;SDS011;24924;50.054;8.790;2023-02-19T12:19:26;10.55;;;3.80;;
38603;SDS011;24924;50.054;8.790;2023-02-19T12:24:49;4.90;;;2.80;;
38603;SDS011;24924;50.054;8.790;2023-02-19T12:27:32;8.15;;;3.50;;
38603;SDS011;24924;50.054;8.790;2023-02-19T12:38:36;6.00;;;3.17;;
38603;SDS011;24924;50.054;8.790;2023-02-19T12:41:18;6.25;;;3.10;;
38603;SDS011;24924;50.054;8.790;2023-02-19T12:43:55;6.25;;;3.10;;
38603;SDS011;24924;50.054;8.790;2023-02-19T12:46:34;6.65;;;3.10;;
38603;SDS011;24924;50.054;8.790;2023-02-19T12:49:14;7.30;;;3.37;;
38603;SDS011;24924;50.054;8.790;2023-02-19T12:54:41;6.45;;;3.38;;
38603;SDS011;24924;50.054;8.790;2023-02-19T13:02:25;6.60;;;3.17;;
38603;SDS011;24924;50.054;8.790;2023-02-19T13:05:05;7.03;;;2.83;;
38603;SDS011;24924;50.054;8.790;2023-02-19T13:07:49;4.85;;;2.72;;
38603;SDS011;24924;50.054;8.790;2023-02-19T13:12:59;6.05;;;2.67;;
38603;SDS011;24924;50.054;8.790;2023-02-19T13:15:34;5.30;;;2.73;;
38603;SDS011;24924;50.054;8.790;2023-02-19T13:18:17;7.13;;;2.83;;
38603;SDS011;24924;50.054;8.790;2023-02-19T13:20:46;9.82;;;4.00;;
38603;SDS011;24924;50.054;8.790;2023-02-19T13:23:18;8.00;;;3.40;;
38603;SDS011;24924;50.054;8.790;2023-02-19T13:26:14;5.50;;;2.75;;
38603;SDS011;24924;50.054;8.790;2023-02-19T13:37:02;9.13;;;3.33;;
38603;SDS011;24924;50.054;8.790;2023-02-19T13:39:28;8.20;;;3.65;;
38603;SDS011;24924;50.054;8.790;2023-02-19T13:41:55;6.40;;;3.00;;
38603;SDS011;24924;50.054;8.790;2023-02-19T13:44:30;6.95;;;2.78;;
38603;SDS011;24924;50.054;8.790;2023-02-19T13:46:57;8.13;;;2.95;;
38603;SDS011;24924;50.054;8.790;2023-02-19T13:49:36;6.60;;;3.20;;
38603;SDS011;24924;50.054;8.790;2023-02-19T13:55:10;6.83;;;3.10;;
38603;SDS011;24924;50.054;8.790;2023-02-19T14:01:11;7.88;;;2.90;;
38603;SDS011;24924;50.054;8.790;2023-02-19T14:03:39;7.72;;;3.15;;
38603;SDS011;24924;50.054;8.790;2023-02-19T14:06:09;6.22;;;3.00;;
38603;SDS011;24924;50.054;8.790;2023-02-19T14:08:45;5.43;;;2.90;;
38603;SDS011;24924;50.054;8.790;2023-02-19T14:33:28;6.82;;;3.00;;
38603;SDS011;24924;50.054;8.790;2023-02-19T14:38:52;6.88;;;3.28;;
38603;SDS011;24924;50.054;8.790;2023-02-19T14:41:23;6.22;;;3.10;;
38603;SDS011;24924;50.054;8.790;2023-02-19T14:43:50;8.70;;;3.17;;
38603;SDS011;24924;50.054;8.790;2023-02-19T14:46:35;6.15;;;3.03;;
38603;SDS011;24924;50.054;8.790;2023-02-19T14:51:49;6.35;;;2.58;;
38603;SDS011;24924;50.054;8.790;2023-02-19T14:54:20;6.80;;;2.95;;
38603;SDS011;24924;50.054;8.790;2023-02-19T14:56:57;5.43;;;2.53;;
38603;SDS011;24924;50.054;8.790;2023-02-19T14:59:25;5.85;;;2.47;;
38603;SDS011;24924;50.054;8.790;2023-02-19T15:01:59;5.68;;;2.72;;
38603;SDS011;24924;50.054;8.790;2023-02-19T15:04:28;5.93;;;2.72;;
38603;SDS011;24924;50.054;8.790;2023-02-19T15:06:59;5.38;;;2.80;;
38603;SDS011;24924;50.054;8.790;2023-02-19T15:09:32;5.43;;;2.70;;
38603;SDS011;24924;50.054;8.790;2023-02-19T15:12:03;5.97;;;2.60;;
38603;SDS011;24924;50.054;8.790;2023-02-19T15:14:29;4.20;;;2.40;;
38603;SDS011;24924;50.054;8.790;2023-02-19T15:16:58;5.43;;;2.80;;
38603;SDS011;24924;50.054;8.790;2023-02-19T15:19:28;7.93;;;3.38;;
38603;SDS011;24924;50.054;8.790;2023-02-19T15:21:57;5.13;;;2.90;;
38603;SDS011;24924;50.054;8.790;2023-02-19T15:24:24;5.35;;;2.45;;
38603;SDS011;24924;50.054;8.790;2023-02-19T15:26:50;6.65;;;3.22;;
38603;SDS011;24924;50.054;8.790;2023-02-19T15:29:20;4.32;;;2.35;;
38603;SDS011;24924;50.054;8.790;2023-02-19T15:31:57;8.50;;;3.00;;
38603;SDS011;24924;50.054;8.790;2023-02-19T15:34:25;5.13;;;2.50;;
38603;SDS011;24924;50.054;8.790;2023-02-19T15:36:56;5.20;;;2.65;;
38603;SDS011;24924;50.054;8.790;2023-02-19T15:39:25;4.20;;;2.60;;
38603;SDS011;24924;50.054;8.790;2023-02-19T15:41:59;4.80;;;2.83;;
38603;SDS011;24924;50.054;8.790;2023-02-19T15:44:29;4.43;;;2.63;;
38603;SDS011;24924;50.054;8.790;2023-02-19T15:49:45;6.45;;;2.33;;
38603;SDS011;24924;50.054;8.790;2023-02-19T15:52:20;4.90;;;2.60;;
38603;SDS011;24924;50.054;8.790;2023-02-19T15:55:17;4.78;;;2.22;;
38603;SDS011;24924;50.054;8.790;2023-02-19T15:58:14;4.13;;;2.58;;
38603;SDS011;24924;50.054;8.790;2023-02-19T16:01:03;5.13;;;2.40;;
38603;SDS011;24924;50.054;8.790;2023-02-19T16:03:35;4.47;;;2.60;;
38603;SDS011;24924;50.054;8.790;2023-02-19T16:08:34;4.05;;;2.45;;
38603;SDS011;24924;50.054;8.790;2023-02-19T16:11:02;5.10;;;2.60;;
38603;SDS011;24924;50.054;8.790;2023-02-19T16:13:31;5.47;;;2.50;;
38603;SDS011;24924;50.054;8.790;2023-02-19T16:18:33;4.88;;;2.40;;
38603;SDS011;24924;50.054;8.790;2023-02-19T16:21:00;4.68;;;2.40;;
38603;SDS011;24924;50.054;8.790;2023-02-19T16:23:28;4.80;;;2.50;;
38603;SDS011;24924;50.054;8.790;2023-02-19T16:25:56;5.47;;;2.80;;
38603;SDS011;24924;50.054;8.790;2023-02-19T16:28:26;4.13;;;2.30;;
38603;SDS011;24924;50.054;8.790;2023-02-19T16:31:03;5.35;;;2.60;;
38603;SDS011;24924;50.054;8.790;2023-02-19T16:33:43;5.15;;;2.70;;
38603;SDS011;24924;50.054;8.790;2023-02-19T16:41:34;4.13;;;2.50;;
38603;SDS011;24924;50.054;8.790;2023-02-19T22:01:25;9.70;;;5.10;;
38603;SDS011;24924;50.054;8.790;2023-02-19T22:03:57;10.00;;;4.90;;
38603;SDS011;24924;50.054;8.790;2023-02-19T22:06:23;8.43;;;4.60;;
38603;SDS011;24924;50.054;8.790;2023-02-19T22:08:50;8.15;;;4.75;;
38603;SDS011;24924;50.054;8.790;2023-02-19T22:11:16;10.07;;;4.80;;
38603;SDS011;24924;50.054;8.790;2023-02-19T22:13:42;8.93;;;4.80;;
38603;SDS011;24924;50.054;8.790;2023-02-19T22:16:08;8.85;;;5.15;;
38603;SDS011;24924;50.054;8.790;2023-02-19T22:18:34;8.85;;;4.95;;
38603;SDS011;24924;50.054;8.790;2023-02-19T22:21:04;8.27;;;4.73;;
38603;SDS011;24924;50.054;8.790;2023-02-19T22:23:30;9.52;;;4.78;;
38603;SDS011;24924;50.054;8.790;2023-02-19T22:25:56;7.75;;;4.50;;
38603;SDS011;24924;50.054;8.790;2023-02-19T22:28:22;7.73;;;4.63;;
38603;SDS011;24924;50.054;8.790;2023-02-19T22:30:47;9.48;;;4.53;;
38603;SDS011;24924;50.054;8.790;2023-02-19T22:33:13;9.93;;;4.88;;
38603;SDS011;24924;50.054;8.790;2023-02-19T22:35:39;7.57;;;4.50;;
38603;SDS011;24924;50.054;8.790;2023-02-19T22:38:05;7.10;;;4.38;;
38603;SDS011;24924;50.054;8.790;2023-02-19T22:40:31;9.07;;;4.85;;